Time;durP1;ratioP1;P1;durP2;ratioP2;P2;SDS_P1;SDS_P2;PMS_P1;PMS_P2;Temp;Humidity;BMP_temperature;BMP_pressure;BME280_temperature;BME280_humidity;BME280_pressure;Samples;Min_cycle;Max_cycle;Signal;HPM_P1;HPM_P2
2021/01/20 00:02:14;;;;;;;14.03;7.30;;;5.10;85.70;;;;;;4868227;28;96842;-74
2021/01/20 00:04:40;;;;;;;12.70;7.37;;;5.10;85.50;;;;;;4885599;28;94196;-74
2021/01/20 00:07:06;;;;;;;13.73;7.47;;;5.10;85.30;;;;;;4885280;28;92378;-74
2021/01/20 00:09:32;;;;;;;13.57;7.30;;;5.10;85.30;;;;;;4884689;28;92891;-74
2021/01/20 00:11:57;;;;;;;14.40;6.90;;;5.20;85.40;;;;;;4869341;28;96070;-74
2021/01/20 00:14:24;;;;;;;12.83;7.00;;;5.20;85.50;;;;;;4868506;28;96814;-74
2021/01/20 00:16:50;;;;;;;12.57;6.60;;;5.20;85.40;;;;;;4885515;28;91943;-74
2021/01/20 00:19:16;;;;;;;10.50;5.93;;;5.20;85.10;;;;;;4868944;28;91321;-74
2021/01/20 00:21:42;;;;;;;11.70;6.80;;;5.20;85.30;;;;;;4885306;28;92887;-74
2021/01/20 00:24:08;;;;;;;15.40;7.07;;;5.30;85.10;;;;;;4885454;28;93283;-74
2021/01/20 00:26:34;;;;;;;14.57;7.47;;;5.20;85.40;;;;;;4868516;28;92847;-74
2021/01/20 00:29:00;;;;;;;15.20;7.90;;;5.30;85.80;;;;;;4868823;28;92140;-74
2021/01/20 00:31:26;;;;;;;14.43;6.87;;;5.20;85.80;;;;;;4868263;28;97181;-74
2021/01/20 00:33:52;;;;;;;14.57;7.47;;;5.30;86.10;;;;;;4884801;28;96576;-74
2021/01/20 00:36:17;;;;;;;14.90;7.00;;;5.30;85.80;;;;;;4885028;28;91874;-74
2021/01/20 00:38:43;;;;;;;14.23;6.57;;;5.30;85.80;;;;;;4902471;28;92082;-74
2021/01/20 00:41:09;;;;;;;14.80;6.73;;;5.30;85.80;;;;;;4884632;28;93313;-74
2021/01/20 00:43:35;;;;;;;15.00;8.53;;;5.30;85.50;;;;;;4902425;28;93378;-74
2021/01/20 00:46:01;;;;;;;15.30;7.67;;;5.30;85.80;;;;;;4869878;28;92013;-74
2021/01/20 00:48:27;;;;;;;11.83;6.70;;;5.30;86.00;;;;;;4884400;28;92129;-74
2021/01/20 00:50:57;;;;;;;19.50;7.57;;;5.30;85.70;;;;;;4883978;28;97618;-74
2021/01/20 00:53:24;;;;;;;17.08;7.88;;;5.30;85.90;;;;;;4883839;28;96628;-74
2021/01/20 00:55:50;;;;;;;14.13;7.30;;;5.20;86.20;;;;;;4885171;28;92726;-74
2021/01/20 00:58:17;;;;;;;13.80;7.00;;;5.20;86.00;;;;;;4884298;28;92161;-74
2021/01/20 01:00:43;;;;;;;11.20;6.83;;;5.30;86.00;;;;;;4868494;28;96303;-74
2021/01/20 01:03:10;;;;;;;12.60;6.77;;;5.20;86.20;;;;;;4882247;28;93405;-73
2021/01/20 01:05:36;;;;;;;12.87;6.93;;;5.20;86.60;;;;;;4849678;28;92473;-74
2021/01/20 01:08:04;;;;;;;11.80;6.50;;;5.20;86.70;;;;;;4849834;28;91535;-74
2021/01/20 01:10:37;;;;;;;13.93;7.30;;;5.20;86.90;;;;;;4850033;28;95646;-74
2021/01/20 01:13:15;;;;;;;11.07;6.80;;;5.20;87.20;;;;;;4865082;28;96214;-74
2021/01/20 01:15:54;;;;;;;11.50;6.87;;;5.30;87.40;;;;;;4851442;28;93084;-74
2021/01/20 01:18:19;;;;;;;12.50;6.00;;;5.30;87.80;;;;;;4855925;28;95678;-74
2021/01/20 01:20:45;;;;;;;10.67;6.63;;;5.30;88.00;;;;;;4884385;28;93143;-74
2021/01/20 01:23:11;;;;;;;9.00;6.03;;;5.30;87.90;;;;;;4884081;28;96944;-74
2021/01/20 01:25:37;;;;;;;11.40;6.60;;;5.30;87.70;;;;;;4867884;28;91984;-74
2021/01/20 01:28:14;;;;;;;9.63;5.93;;;5.40;87.60;;;;;;4883749;28;92137;-74
2021/01/20 01:30:54;;;;;;;8.90;5.80;;;5.40;87.60;;;;;;4883676;28;95677;-74
2021/01/20 01:33:20;;;;;;;6.93;4.60;;;5.40;87.50;;;;;;4883473;28;96149;-74
2021/01/20 01:35:46;;;;;;;7.33;4.60;;;5.50;87.50;;;;;;4884398;28;92036;-74
2021/01/20 01:38:12;;;;;;;6.67;4.60;;;5.50;87.50;;;;;;4884294;28;92178;-74
2021/01/20 01:40:42;;;;;;;5.93;4.03;;;5.50;87.60;;;;;;4867677;28;96176;-74
2021/01/20 01:43:20;;;;;;;79.37;23.23;;;5.50;87.40;;;;;;4883057;28;96367;-74
2021/01/20 01:46:06;;;;;;;22.10;11.00;;;5.50;87.20;;;;;;4900737;28;92081;-74
2021/01/20 01:48:33;;;;;;;17.53;11.30;;;5.60;87.40;;;;;;4867056;28;92232;-74
2021/01/20 01:51:00;;;;;;;6.97;5.03;;;5.50;87.40;;;;;;4883106;28;96575;-74
2021/01/20 01:53:27;;;;;;;11.23;6.33;;;5.60;87.10;;;;;;4867277;28;95320;-74
2021/01/20 01:56:08;;;;;;;9.37;5.60;;;5.60;87.40;;;;;;4870401;28;91930;-74
2021/01/20 01:58:51;;;;;;;7.43;4.83;;;5.60;87.20;;;;;;4884318;28;91386;-74
2021/01/20 02:01:19;;;;;;;8.20;4.33;;;5.60;87.40;;;;;;4883102;28;96511;-74
2021/01/20 02:03:53;;;;;;;8.93;5.70;;;5.70;87.40;;;;;;4868738;28;95296;-74
2021/01/20 02:06:23;;;;;;;14.03;8.67;;;5.60;87.40;;;;;;4867502;28;92930;-74
2021/01/20 02:08:57;;;;;;;10.23;5.83;;;5.70;87.50;;;;;;4868541;28;92177;-74
2021/01/20 02:11:50;;;;;;;9.93;7.07;;;5.70;87.40;;;;;;4882950;28;92515;-74
2021/01/20 02:14:32;;;;;;;17.43;9.63;;;5.70;87.30;;;;;;4883485;28;96299;-74
2021/01/20 02:17:43;;;;;;;8.10;5.40;;;5.70;87.30;;;;;;4870301;28;92018;-73
2021/01/20 02:20:24;;;;;;;8.83;4.37;;;5.80;87.50;;;;;;4868438;28;91986;-74
2021/01/20 02:22:57;;;;;;;7.80;5.43;;;5.80;87.40;;;;;;4867777;28;96884;-74
2021/01/20 02:26:12;;;;;;;6.77;4.67;;;5.80;87.30;;;;;;4883147;28;91262;-74
2021/01/20 02:29:36;;;;;;;5.97;4.17;;;5.80;87.70;;;;;;4886554;28;92095;-74
2021/01/20 02:32:24;;;;;;;5.53;4.17;;;5.70;88.20;;;;;;4899704;28;93008;-74
2021/01/20 02:34:53;;;;;;;6.00;4.07;;;5.70;88.10;;;;;;4882813;28;97067;-74
2021/01/20 02:37:19;;;;;;;7.50;4.87;;;5.70;88.40;;;;;;4867481;28;97756;-74
2021/01/20 02:40:10;;;;;;;6.40;4.40;;;5.70;88.40;;;;;;4873337;28;91905;-74
2021/01/20 02:42:53;;;;;;;7.97;4.67;;;5.60;88.40;;;;;;4886902;28;92025;-74
2021/01/20 02:45:27;;;;;;;7.20;3.90;;;5.60;88.40;;;;;;4885874;28;95245;-74
2021/01/20 02:47:56;;;;;;;6.57;4.30;;;5.70;88.20;;;;;;4886450;28;96073;-74
2021/01/20 02:50:22;;;;;;;5.87;4.50;;;5.60;88.20;;;;;;4886676;28;92120;-74
2021/01/20 02:53:11;;;;;;;7.40;4.10;;;5.60;88.10;;;;;;4887458;28;91372;-74
2021/01/20 02:56:00;;;;;;;6.47;4.43;;;5.60;88.10;;;;;;4904341;28;92356;-74
2021/01/20 02:58:33;;;;;;;6.90;4.87;;;5.50;88.00;;;;;;4883414;28;93049;-74
2021/01/20 03:01:37;;;;;;;7.07;4.97;;;5.50;87.90;;;;;;4866607;28;93249;-74
2021/01/20 03:04:04;;;;;;;6.70;4.73;;;5.50;87.90;;;;;;4887021;28;92126;-74
2021/01/20 03:06:31;;;;;;;7.37;5.03;;;5.50;88.00;;;;;;4886231;28;92770;-74
2021/01/20 03:08:58;;;;;;;6.23;4.50;;;5.40;88.00;;;;;;4887050;28;92778;-74
2021/01/20 03:11:24;;;;;;;6.30;4.97;;;5.30;88.00;;;;;;4886819;28;92087;-74
2021/01/20 03:13:51;;;;;;;7.10;5.23;;;5.40;88.20;;;;;;4886834;28;92140;-74
2021/01/20 03:16:23;;;;;;;7.83;4.83;;;5.40;88.00;;;;;;4904020;28;93075;-74
2021/01/20 03:18:49;;;;;;;7.80;4.73;;;5.40;87.80;;;;;;4903134;28;93398;-74
2021/01/20 03:21:15;;;;;;;7.90;5.27;;;5.40;87.50;;;;;;4887299;28;92005;-74
2021/01/20 03:23:41;;;;;;;7.10;4.97;;;5.50;87.40;;;;;;4886870;28;92056;-74
2021/01/20 03:26:07;;;;;;;6.57;4.57;;;5.50;87.10;;;;;;4904657;28;94287;-75
2021/01/20 03:28:32;;;;;;;7.13;5.37;;;5.50;87.00;;;;;;4888180;28;92874;-74
2021/01/20 03:30:58;;;;;;;6.87;4.67;;;5.50;86.90;;;;;;4890834;28;92455;-75
2021/01/20 03:33:24;;;;;;;6.90;5.37;;;5.50;87.00;;;;;;4908978;28;92291;-75
2021/01/20 03:35:50;;;;;;;8.17;5.60;;;5.60;86.70;;;;;;4889971;28;93636;-74
2021/01/20 03:38:16;;;;;;;7.80;6.10;;;5.50;86.90;;;;;;4886327;28;92470;-74
2021/01/20 03:40:41;;;;;;;9.03;5.70;;;5.50;86.50;;;;;;4885708;28;92483;-74
2021/01/20 03:43:07;;;;;;;7.97;5.83;;;5.50;86.50;;;;;;4903939;28;91649;-74
2021/01/20 03:45:33;;;;;;;8.03;6.10;;;5.50;86.30;;;;;;4885341;28;93074;-74
2021/01/20 03:47:59;;;;;;;8.37;5.83;;;5.50;86.60;;;;;;4903256;28;92811;-74
2021/01/20 03:50:24;;;;;;;7.93;5.40;;;5.40;86.60;;;;;;4901841;28;93582;-74
2021/01/20 03:52:50;;;;;;;6.97;5.50;;;5.40;86.70;;;;;;4885893;28;91934;-74
2021/01/20 03:55:16;;;;;;;8.53;5.30;;;5.40;86.90;;;;;;4886220;28;93027;-74
2021/01/20 03:57:42;;;;;;;6.03;4.67;;;5.40;86.90;;;;;;4885322;28;92923;-74
2021/01/20 04:00:08;;;;;;;7.63;5.13;;;5.40;86.70;;;;;;4886281;28;91954;-74
2021/01/20 04:02:34;;;;;;;8.50;5.40;;;5.40;86.30;;;;;;4868947;28;92146;-74
2021/01/20 04:05:24;;;;;;;6.77;5.47;;;5.50;86.40;;;;;;4878157;28;94569;-74
2021/01/20 04:07:49;;;;;;;8.33;4.80;;;5.40;86.10;;;;;;4884918;28;95860;-74
2021/01/20 04:10:15;;;;;;;7.33;5.90;;;5.50;86.00;;;;;;4903307;28;91742;-74
2021/01/20 04:12:41;;;;;;;7.30;5.97;;;5.50;86.60;;;;;;4868970;28;92137;-74
2021/01/20 04:15:09;;;;;;;6.73;5.27;;;5.50;85.70;;;;;;4884609;28;97703;-74
2021/01/20 04:17:35;;;;;;;5.80;4.63;;;5.50;85.50;;;;;;4867784;28;97356;-74
2021/01/20 04:20:03;;;;;;;5.00;4.40;;;5.50;85.40;;;;;;4885409;28;92302;-74
2021/01/20 04:22:29;;;;;;;6.10;4.53;;;5.60;85.40;;;;;;4884995;28;92469;-75
2021/01/20 04:24:55;;;;;;;5.70;4.13;;;5.60;85.60;;;;;;4884951;28;93876;-74
2021/01/20 04:27:20;;;;;;;7.27;5.30;;;5.50;85.10;;;;;;4884938;28;96661;-74
2021/01/20 04:29:46;;;;;;;37.90;14.50;;;5.50;85.50;;;;;;4868806;28;92349;-74
2021/01/20 04:32:12;;;;;;;32.20;14.00;;;5.40;85.90;;;;;;4884861;28;91701;-74
2021/01/20 04:34:38;;;;;;;73.23;30.53;;;5.40;86.20;;;;;;4883474;28;96235;-74
2021/01/20 04:37:04;;;;;;;37.40;16.50;;;5.30;86.40;;;;;;4884154;28;95765;-74
2021/01/20 04:39:30;;;;;;;45.83;25.13;;;5.30;86.30;;;;;;4883483;28;93025;-74
2021/01/20 04:41:57;;;;;;;16.80;10.93;;;5.30;86.50;;;;;;4884342;28;92227;-74
2021/01/20 04:44:23;;;;;;;8.70;7.17;;;5.30;86.30;;;;;;4868873;28;96563;-74
2021/01/20 04:46:51;;;;;;;39.43;15.13;;;5.30;86.40;;;;;;4868771;28;95282;-74
2021/01/20 04:49:18;;;;;;;29.93;12.67;;;5.20;86.90;;;;;;4868742;28;91861;-74
2021/01/20 04:51:46;;;;;;;12.80;6.77;;;5.10;87.40;;;;;;4867685;28;92262;-74
2021/01/20 04:54:13;;;;;;;21.77;12.17;;;5.00;87.90;;;;;;4901980;28;93154;-74
2021/01/20 04:56:39;;;;;;;9.23;6.03;;;5.00;88.30;;;;;;4867668;28;96351;-74
2021/01/20 04:59:05;;;;;;;20.83;11.73;;;4.90;88.60;;;;;;4869219;28;92167;-74
2021/01/20 05:01:32;;;;;;;50.63;18.73;;;4.90;88.50;;;;;;4883106;28;92336;-74
2021/01/20 05:04:03;;;;;;;43.60;15.23;;;4.80;88.80;;;;;;4900311;28;94590;-74
2021/01/20 05:06:29;;;;;;;53.20;19.53;;;4.90;88.80;;;;;;4884113;28;94366;-74
2021/01/20 05:08:56;;;;;;;59.00;19.97;;;4.90;88.80;;;;;;4900699;28;91900;-74
2021/01/20 05:11:44;;;;;;;64.87;23.73;;;4.80;88.90;;;;;;4868171;28;92110;-74
2021/01/20 05:14:15;;;;;;;81.30;29.37;;;4.80;89.10;;;;;;4901258;28;93150;-74
2021/01/20 05:16:42;;;;;;;60.57;22.10;;;4.70;89.30;;;;;;4883462;28;92338;-74
2021/01/20 05:19:08;;;;;;;38.37;16.93;;;4.70;89.70;;;;;;4867708;28;92395;-74
2021/01/20 05:21:35;;;;;;;36.60;15.27;;;4.70;89.80;;;;;;4883645;28;91631;-74
2021/01/20 05:24:30;;;;;;;52.40;21.67;;;4.70;89.70;;;;;;4867649;28;96931;-74
2021/01/20 05:26:56;;;;;;;37.80;16.43;;;4.70;89.90;;;;;;4862377;28;96409;-75
2021/01/20 05:29:22;;;;;;;68.87;28.93;;;4.70;89.80;;;;;;4883106;28;93045;-74
2021/01/20 05:31:48;;;;;;;45.03;20.00;;;4.60;89.90;;;;;;4900668;28;92219;-74
2021/01/20 05:34:37;;;;;;;29.30;13.53;;;4.60;90.10;;;;;;4867755;28;96772;-74
2021/01/20 05:37:08;;;;;;;33.43;14.93;;;4.60;90.10;;;;;;4900960;28;92485;-74
2021/01/20 05:39:35;;;;;;;18.17;11.40;;;4.60;90.30;;;;;;4868019;28;92093;-74
2021/01/20 05:42:05;;;;;;;22.23;12.57;;;4.70;90.00;;;;;;4883068;28;92278;-74
2021/01/20 05:44:30;;;;;;;19.10;11.67;;;4.60;90.20;;;;;;4867659;28;96281;-74
2021/01/20 05:46:56;;;;;;;13.50;8.37;;;4.60;90.20;;;;;;4882770;28;96422;-74
2021/01/20 05:49:23;;;;;;;9.33;6.83;;;4.60;90.20;;;;;;4901879;28;91875;-74
2021/01/20 05:51:52;;;;;;;9.77;7.37;;;4.60;90.40;;;;;;4867458;28;92133;-74
2021/01/20 05:54:30;;;;;;;8.83;7.47;;;4.70;90.20;;;;;;4867606;28;97861;-74
2021/01/20 05:57:14;;;;;;;9.97;8.43;;;4.70;90.20;;;;;;4882854;28;95741;-74
2021/01/20 05:59:41;;;;;;;12.53;9.03;;;4.80;90.00;;;;;;4900955;28;92011;-74
2021/01/20 06:02:09;;;;;;;19.53;10.90;;;4.80;89.70;;;;;;4868319;28;92183;-74
2021/01/20 06:04:36;;;;;;;12.97;10.47;;;4.80;89.90;;;;;;4867229;28;96532;-74
2021/01/20 06:07:07;;;;;;;15.60;11.77;;;4.80;89.40;;;;;;4866696;28;96586;-74
2021/01/20 06:09:34;;;;;;;11.97;10.50;;;4.80;89.50;;;;;;4900876;28;92313;-74
2021/01/20 06:12:01;;;;;;;12.03;10.07;;;4.80;89.50;;;;;;4900293;28;91680;-74
2021/01/20 06:14:27;;;;;;;10.93;9.13;;;4.90;89.30;;;;;;4866974;28;96793;-74
2021/01/20 06:17:02;;;;;;;15.77;14.07;;;4.90;89.00;;;;;;4900120;28;92232;-74
2021/01/20 06:19:29;;;;;;;16.47;14.87;;;5.00;88.90;;;;;;4881870;28;93003;-74
2021/01/20 06:21:59;;;;;;;17.43;15.57;;;5.00;88.80;;;;;;4866515;28;92148;-74
2021/01/20 06:24:37;;;;;;;16.53;14.30;;;5.10;88.50;;;;;;4882887;28;96775;-74
2021/01/20 06:27:25;;;;;;;12.40;10.83;;;5.10;88.10;;;;;;4866529;28;96795;-74
2021/01/20 06:30:22;;;;;;;14.60;9.63;;;5.10;88.00;;;;;;4867078;28;92087;-74
2021/01/20 06:32:49;;;;;;;13.43;10.53;;;5.10;87.80;;;;;;4880655;28;92048;-74
2021/01/20 06:35:18;;;;;;;12.10;8.33;;;5.10;87.50;;;;;;4900238;28;92038;-74
2021/01/20 06:37:49;;;;;;;10.33;7.30;;;5.10;87.50;;;;;;4867066;28;96764;-74
2021/01/20 06:40:20;;;;;;;11.73;8.17;;;5.10;87.40;;;;;;4883502;28;92455;-74
2021/01/20 06:42:47;;;;;;;10.18;7.90;;;5.10;87.50;;;;;;4900260;28;92133;-74
2021/01/20 06:45:23;;;;;;;10.80;8.10;;;5.10;87.50;;;;;;4883137;28;93757;-74
2021/01/20 06:47:58;;;;;;;15.17;8.67;;;5.10;87.60;;;;;;4867088;28;97120;-75
2021/01/20 06:50:31;;;;;;;13.17;8.97;;;5.10;87.60;;;;;;4884313;28;92012;-74
2021/01/20 06:53:06;;;;;;;12.13;8.10;;;5.10;87.80;;;;;;4867302;28;92064;-74
2021/01/20 06:55:36;;;;;;;12.47;8.50;;;5.10;87.70;;;;;;4900796;28;93780;-74
2021/01/20 06:58:24;;;;;;;13.43;9.53;;;5.10;87.60;;;;;;4883528;28;93325;-74
2021/01/20 07:00:58;;;;;;;11.17;8.77;;;5.10;87.70;;;;;;4901939;28;91940;-74
2021/01/20 07:03:41;;;;;;;12.40;8.83;;;5.10;87.70;;;;;;4871579;28;91883;-78
2021/01/20 07:06:25;;;;;;;;;;;5.10;87.60;;;;;;4904178;28;93182;-75
2021/01/20 07:08:55;;;;;;;16.17;10.17;;;5.10;87.30;;;;;;4878868;28;95807;-74
2021/01/20 07:11:20;;;;;;;12.40;9.17;;;5.20;87.30;;;;;;4899092;28;93010;-74
2021/01/20 07:13:46;;;;;;;13.40;9.37;;;5.20;87.20;;;;;;4886519;28;92293;-75
2021/01/20 07:16:12;;;;;;;13.03;9.13;;;5.20;87.00;;;;;;4870330;28;96824;-74
2021/01/20 07:18:41;;;;;;;13.57;8.40;;;5.20;87.00;;;;;;4884688;28;95622;-74
2021/01/20 07:21:07;;;;;;;11.40;8.30;;;5.20;86.60;;;;;;4879142;28;92040;-74
2021/01/20 07:23:34;;;;;;;16.40;9.83;;;5.30;86.20;;;;;;4864355;28;92202;-74
2021/01/20 07:26:03;;;;;;;14.73;9.40;;;5.40;86.00;;;;;;4872821;28;93028;-74
2021/01/20 07:28:30;;;;;;;15.23;10.10;;;5.40;85.90;;;;;;4862808;28;96796;-74
2021/01/20 07:31:04;;;;;;;15.60;11.37;;;5.50;85.40;;;;;;4876130;28;92244;-74
2021/01/20 07:33:30;;;;;;;15.37;9.87;;;5.50;85.20;;;;;;4874907;28;92263;-74
2021/01/20 07:35:56;;;;;;;14.77;10.10;;;5.50;85.20;;;;;;4875278;28;93765;-74
2021/01/20 07:38:32;;;;;;;17.73;10.33;;;5.70;84.40;;;;;;4870454;28;97033;-74
2021/01/20 07:40:58;;;;;;;14.03;9.50;;;5.70;84.40;;;;;;4872489;28;92128;-74
2021/01/20 07:43:24;;;;;;;12.80;8.73;;;5.90;83.30;;;;;;4876016;28;92275;-74
2021/01/20 07:45:52;;;;;;;12.30;8.43;;;6.00;82.50;;;;;;4878553;28;96388;-74
2021/01/20 07:48:29;;;;;;;21.80;11.53;;;6.10;82.20;;;;;;4869824;28;96243;-74
2021/01/20 07:50:55;;;;;;;21.10;11.57;;;6.20;81.40;;;;;;4867063;28;92130;-74
2021/01/20 07:53:21;;;;;;;20.70;11.40;;;6.30;81.00;;;;;;4855062;28;91361;-74
2021/01/20 07:55:54;;;;;;;13.53;8.70;;;6.30;80.40;;;;;;4865738;28;93170;-74
2021/01/20 07:58:29;;;;;;;31.43;16.23;;;6.50;80.00;;;;;;4871944;28;93321;-74
2021/01/20 08:00:56;;;;;;;35.87;17.27;;;6.60;79.30;;;;;;4874178;28;93395;-74
2021/01/20 08:03:36;;;;;;;30.27;14.20;;;7.00;77.40;;;;;;4865624;28;92262;-74
2021/01/20 08:06:07;;;;;;;43.53;20.47;;;7.50;76.00;;;;;;4896764;28;93438;-75
2021/01/20 08:08:32;;;;;;;16.17;9.07;;;8.10;72.80;;;;;;4868955;28;93195;-74
2021/01/20 08:11:01;;;;;;;14.97;9.43;;;8.50;70.90;;;;;;4901503;28;92044;-74
2021/01/20 08:13:30;;;;;;;17.10;9.83;;;8.60;69.00;;;;;;4902137;28;92402;-74
2021/01/20 08:15:56;;;;;;;17.43;10.13;;;8.80;67.40;;;;;;4883704;28;95939;-75
2021/01/20 08:18:23;;;;;;;20.13;11.52;;;8.90;67.60;;;;;;4907491;28;93101;-74
2021/01/20 08:20:49;;;;;;;18.13;10.52;;;8.90;66.90;;;;;;4916546;28;92650;-74
2021/01/20 08:23:34;;;;;;;23.05;12.65;;;9.00;66.80;;;;;;4910321;28;92186;-75
2021/01/20 08:26:05;;;;;;;14.65;9.30;;;9.20;65.30;;;;;;4906505;28;93733;-74
2021/01/20 08:28:31;;;;;;;17.73;10.63;;;9.20;65.80;;;;;;4893924;28;96744;-74
2021/01/20 08:30:57;;;;;;;11.70;6.35;;;9.40;65.20;;;;;;4894001;28;92231;-75
2021/01/20 08:33:23;;;;;;;12.88;7.82;;;9.40;64.40;;;;;;4893444;28;92165;-75
2021/01/20 08:35:57;;;;;;;13.68;8.95;;;9.50;64.50;;;;;;4892364;28;96112;-75
2021/01/20 08:38:28;;;;;;;32.95;15.07;;;9.70;64.10;;;;;;4878964;28;96451;-71
2021/01/20 08:41:13;;;;;;;14.77;8.15;;;9.90;63.10;;;;;;4871687;28;92337;-71
2021/01/20 08:43:41;;;;;;;13.07;7.38;;;10.00;61.90;;;;;;4890562;28;91371;-72
2021/01/20 08:46:27;;;;;;;15.65;9.05;;;10.10;61.60;;;;;;4892476;28;96406;-73
2021/01/20 08:49:00;;;;;;;16.90;10.25;;;10.10;61.50;;;;;;4873519;28;96759;-73
2021/01/20 08:51:26;;;;;;;20.58;11.30;;;10.10;61.40;;;;;;4912670;28;93517;-73
2021/01/20 08:53:52;;;;;;;11.77;7.22;;;10.20;60.90;;;;;;4919632;28;92563;-73
2021/01/20 08:56:26;;;;;;;9.98;6.45;;;10.30;61.00;;;;;;4893810;28;96785;-73
2021/01/20 08:58:53;;;;;;;11.63;6.80;;;10.40;60.70;;;;;;4883934;28;96757;-73
2021/01/20 09:01:23;;;;;;;15.20;8.73;;;10.40;59.90;;;;;;4879687;28;92670;-73
2021/01/20 09:04:02;;;;;;;38.50;16.77;;;10.30;60.20;;;;;;4885187;28;92604;-73
2021/01/20 09:06:28;;;;;;;41.22;16.90;;;10.50;59.70;;;;;;4898370;28;93853;-73
2021/01/20 09:08:55;;;;;;;49.80;18.73;;;10.70;59.10;;;;;;4898533;28;96588;-73
2021/01/20 09:11:22;;;;;;;28.77;13.18;;;10.90;58.10;;;;;;4871502;28;93508;-73
2021/01/20 09:13:50;;;;;;;35.47;18.38;;;10.70;57.80;;;;;;4898705;28;92959;-74
2021/01/20 09:16:24;;;;;;;21.35;10.65;;;10.50;58.50;;;;;;4884199;28;98493;-73
2021/01/20 09:18:49;;;;;;;39.17;15.48;;;10.20;59.10;;;;;;4907353;28;92779;-73
2021/01/20 09:21:15;;;;;;;36.97;14.82;;;9.90;59.90;;;;;;4871953;28;92186;-73
2021/01/20 09:23:41;;;;;;;22.20;9.55;;;9.60;60.70;;;;;;4873330;28;92159;-73
2021/01/20 09:26:07;;;;;;;22.13;10.02;;;9.50;61.10;;;;;;4895779;28;93547;-73
2021/01/20 09:28:33;;;;;;;28.23;12.50;;;9.40;61.70;;;;;;4883992;28;93725;-74
2021/01/20 09:30:58;;;;;;;22.35;10.30;;;9.30;62.30;;;;;;4895960;28;92585;-73
2021/01/20 09:33:24;;;;;;;19.50;10.73;;;9.40;62.10;;;;;;4879513;28;91604;-73
2021/01/20 09:35:50;;;;;;;39.30;21.17;;;9.30;61.90;;;;;;4896343;28;93287;-74
2021/01/20 09:38:17;;;;;;;28.90;17.27;;;9.30;62.30;;;;;;4878275;28;96477;-73
2021/01/20 09:40:43;;;;;;;23.13;13.27;;;9.30;61.90;;;;;;4878834;28;93479;-75
2021/01/20 09:43:09;;;;;;;33.15;16.58;;;9.30;62.40;;;;;;4862643;28;92189;-74
2021/01/20 09:45:35;;;;;;;26.60;12.00;;;9.30;62.60;;;;;;4866669;28;96128;-75
2021/01/20 09:48:08;;;;;;;34.92;18.73;;;9.40;62.60;;;;;;4893890;28;96632;-74
2021/01/20 09:50:34;;;;;;;43.97;23.48;;;9.50;62.40;;;;;;4875155;28;92269;-74
2021/01/20 09:53:03;;;;;;;16.73;9.23;;;9.60;61.90;;;;;;4909347;28;92136;-74
2021/01/20 09:55:29;;;;;;;19.08;10.70;;;9.70;60.80;;;;;;4893715;28;96586;-74
2021/01/20 09:57:55;;;;;;;17.85;10.63;;;9.80;60.20;;;;;;4913120;28;92360;-74
2021/01/20 10:00:22;;;;;;;17.40;10.52;;;9.80;59.30;;;;;;4888701;28;93102;-74
2021/01/20 10:02:48;;;;;;;14.82;9.30;;;9.90;59.60;;;;;;4894842;28;92531;-74
2021/01/20 10:05:14;;;;;;;8.45;5.40;;;9.80;59.40;;;;;;4907269;28;94393;-74
2021/01/20 10:07:40;;;;;;;10.25;6.40;;;9.80;59.20;;;;;;4872224;28;97848;-74
2021/01/20 10:10:09;;;;;;;14.00;7.95;;;9.90;59.00;;;;;;4899995;28;92560;-74
2021/01/20 10:12:36;;;;;;;13.77;7.40;;;9.80;59.70;;;;;;4891560;28;92163;-74
2021/01/20 10:15:03;;;;;;;12.40;7.05;;;9.70;59.90;;;;;;4879650;28;96043;-74
2021/01/20 10:17:28;;;;;;;12.55;6.97;;;9.70;60.00;;;;;;4875281;28;96313;-74
2021/01/20 10:19:54;;;;;;;11.98;6.97;;;9.80;60.10;;;;;;4918135;28;92049;-74
2021/01/20 10:22:20;;;;;;;15.75;9.32;;;10.10;59.80;;;;;;4900946;28;91771;-74
2021/01/20 10:24:46;;;;;;;18.48;9.30;;;10.40;59.00;;;;;;4900784;28;93642;-74
2021/01/20 10:27:12;;;;;;;20.50;11.02;;;10.20;58.60;;;;;;4900526;28;92547;-74
2021/01/20 10:29:38;;;;;;;13.73;7.70;;;10.20;58.60;;;;;;4880531;28;92950;-74
2021/01/20 10:32:05;;;;;;;16.25;8.18;;;10.10;58.80;;;;;;4869057;28;92188;-74
2021/01/20 10:34:31;;;;;;;23.40;13.15;;;9.90;59.20;;;;;;4881543;28;96459;-74
2021/01/20 10:36:57;;;;;;;17.00;7.85;;;9.80;59.80;;;;;;4884509;28;93285;-74
2021/01/20 10:39:23;;;;;;;12.35;6.47;;;9.60;60.00;;;;;;4881904;28;92109;-74
2021/01/20 10:41:51;;;;;;;17.25;8.93;;;9.60;59.80;;;;;;4886711;28;92293;-74
2021/01/20 10:44:17;;;;;;;13.18;5.90;;;9.60;60.10;;;;;;4883791;28;96770;-75
2021/01/20 10:46:43;;;;;;;10.20;5.53;;;9.50;59.90;;;;;;4887866;28;95972;-76
2021/01/20 10:49:09;;;;;;;13.88;7.75;;;9.50;60.50;;;;;;4881106;28;92418;-74
2021/01/20 10:51:35;;;;;;;14.52;7.55;;;9.60;60.40;;;;;;4884545;28;92599;-75
2021/01/20 10:54:02;;;;;;;12.50;6.65;;;9.80;60.00;;;;;;4893860;28;94153;-74
2021/01/20 10:56:28;;;;;;;15.90;10.02;;;10.00;59.20;;;;;;4889194;28;97619;-73
2021/01/20 10:58:55;;;;;;;11.43;7.95;;;10.20;58.80;;;;;;4914077;28;92226;-74
2021/01/20 11:01:21;;;;;;;17.67;10.88;;;10.30;58.60;;;;;;4913653;28;92526;-74
2021/01/20 11:03:48;;;;;;;8.80;4.88;;;10.50;58.40;;;;;;4878975;28;96728;-73
2021/01/20 11:06:14;;;;;;;12.25;7.00;;;10.50;56.90;;;;;;4873486;28;94812;-73
2021/01/20 11:08:40;;;;;;;6.90;4.60;;;10.50;56.30;;;;;;4887302;28;92042;-74
2021/01/20 11:11:07;;;;;;;11.13;4.50;;;10.50;56.30;;;;;;4882194;28;91670;-73
2021/01/20 11:13:36;;;;;;;10.57;6.30;;;10.50;56.00;;;;;;4884592;28;96315;-73
2021/01/20 11:16:02;;;;;;;9.52;5.45;;;10.40;57.30;;;;;;4899851;28;96177;-73
2021/01/20 11:18:32;;;;;;;6.45;4.13;;;10.50;56.20;;;;;;4889506;28;93584;-74
2021/01/20 11:20:59;;;;;;;6.55;4.18;;;10.60;55.30;;;;;;4898362;28;92273;-73
2021/01/20 11:23:27;;;;;;;6.60;4.20;;;10.60;55.00;;;;;;4865654;28;95915;-73
2021/01/20 11:25:54;;;;;;;5.13;3.30;;;10.60;55.20;;;;;;4887210;28;96266;-73
2021/01/20 11:28:21;;;;;;;6.90;3.60;;;10.50;54.90;;;;;;4892229;28;92488;-73
2021/01/20 11:30:47;;;;;;;7.47;3.92;;;10.50;55.20;;;;;;4894422;28;92346;-73
2021/01/20 11:33:13;;;;;;;6.15;3.40;;;10.60;54.90;;;;;;4882842;28;96737;-73
2021/01/20 11:35:39;;;;;;;6.07;3.47;;;10.60;54.70;;;;;;4881466;28;96107;-73
2021/01/20 11:38:06;;;;;;;6.97;3.40;;;10.50;54.70;;;;;;4865103;28;92138;-74
2021/01/20 11:40:34;;;;;;;4.78;2.95;;;10.50;54.30;;;;;;4892459;28;92303;-74
2021/01/20 11:43:00;;;;;;;4.82;2.88;;;10.40;55.00;;;;;;4872459;28;97427;-74
2021/01/20 11:45:27;;;;;;;7.88;4.57;;;10.40;55.00;;;;;;4910013;28;93399;-74
2021/01/20 11:47:53;;;;;;;6.90;4.20;;;10.40;55.10;;;;;;4890821;28;92876;-74
2021/01/20 11:50:19;;;;;;;7.75;3.97;;;10.50;55.00;;;;;;4894083;28;92215;-73
2021/01/20 11:52:45;;;;;;;5.97;3.38;;;10.50;54.40;;;;;;4904864;28;93571;-73
2021/01/20 11:55:12;;;;;;;6.95;4.72;;;10.40;55.10;;;;;;4899339;28;93185;-73
2021/01/20 11:57:38;;;;;;;7.88;4.50;;;10.40;55.20;;;;;;4900580;28;92549;-75
2021/01/20 12:00:05;;;;;;;10.35;3.92;;;10.50;54.60;;;;;;4901042;28;91298;-75
2021/01/20 12:02:38;;;;;;;11.00;6.45;;;10.50;55.20;;;;;;4914811;28;92875;-75
2021/01/20 12:05:08;;;;;;;5.60;3.85;;;10.60;54.50;;;;;;4874970;28;96556;-74
2021/01/20 12:07:38;;;;;;;5.85;3.70;;;10.50;54.90;;;;;;4865138;28;93112;-74
2021/01/20 12:10:05;;;;;;;7.68;3.60;;;10.40;55.00;;;;;;4878709;28;92178;-76
2021/01/20 12:12:31;;;;;;;7.05;4.95;;;10.30;54.90;;;;;;4864781;28;96468;-76
2021/01/20 12:14:57;;;;;;;7.50;3.10;;;10.30;55.30;;;;;;4897739;28;92982;-75
2021/01/20 12:17:23;;;;;;;6.75;3.70;;;10.20;56.10;;;;;;4889012;28;92602;-74
2021/01/20 12:19:48;;;;;;;6.03;3.88;;;10.30;55.00;;;;;;4873447;28;92303;-75
2021/01/20 12:22:15;;;;;;;6.50;4.00;;;10.20;55.50;;;;;;4890167;28;96069;-75
2021/01/20 12:24:41;;;;;;;5.65;3.78;;;10.20;55.20;;;;;;4907979;28;93212;-74
2021/01/20 12:27:06;;;;;;;6.53;4.47;;;10.20;55.30;;;;;;4882049;28;92052;-75
2021/01/20 12:29:32;;;;;;;6.05;3.95;;;10.20;55.40;;;;;;4873117;28;92216;-75
2021/01/20 12:31:58;;;;;;;8.13;4.13;;;10.10;55.80;;;;;;4884304;28;97273;-76
2021/01/20 12:34:24;;;;;;;4.95;3.63;;;10.20;55.60;;;;;;4873708;28;96672;-75
2021/01/20 12:36:50;;;;;;;9.30;4.57;;;10.20;55.80;;;;;;4875361;28;92350;-74
2021/01/20 12:39:16;;;;;;;9.60;5.70;;;10.10;55.60;;;;;;4886673;28;92480;-81
2021/01/20 12:41:42;;;;;;;8.82;6.03;;;10.10;55.50;;;;;;4887790;28;96234;-75
2021/01/20 12:44:08;;;;;;;12.20;7.28;;;10.00;55.70;;;;;;4890211;28;93097;-75
2021/01/20 12:46:34;;;;;;;13.55;7.78;;;10.00;56.00;;;;;;4892418;28;92152;-77
2021/01/20 12:49:00;;;;;;;11.98;7.45;;;9.90;56.10;;;;;;4885154;28;91389;-74
2021/01/20 12:51:26;;;;;;;9.00;5.07;;;9.90;56.50;;;;;;4900783;28;96276;-74
2021/01/20 12:53:52;;;;;;;11.40;7.13;;;9.80;56.50;;;;;;4882386;28;96099;-74
2021/01/20 12:56:18;;;;;;;9.85;6.43;;;9.80;56.80;;;;;;4873784;28;93249;-73
2021/01/20 12:58:44;;;;;;;17.48;11.45;;;9.80;56.40;;;;;;4897451;28;92287;-72